sensor_id;sensor_type;location;lat;lon;timestamp;P1;durP1;ratioP1;P2;durP2;ratioP2
48845;SDS011;34665;51.886;5.436;2022-11-20T00:00:50;26.10;;;11.88;;
48845;SDS011;34665;51.886;5.436;2022-11-20T00:03:15;25.57;;;12.23;;
48845;SDS011;34665;51.886;5.436;2022-11-20T00:05:42;28.23;;;12.25;;
48845;SDS011;34665;51.886;5.436;2022-11-20T00:08:08;25.95;;;11.35;;
48845;SDS011;34665;51.886;5.436;2022-11-20T00:10:41;23.50;;;12.20;;
48845;SDS011;34665;51.886;5.436;2022-11-20T00:13:06;21.52;;;10.63;;
48845;SDS011;34665;51.886;5.436;2022-11-20T00:15:32;24.52;;;11.05;;
48845;SDS011;34665;51.886;5.436;2022-11-20T00:17:58;29.70;;;11.63;;
48845;SDS011;34665;51.886;5.436;2022-11-20T00:20:24;27.75;;;12.35;;
48845;SDS011;34665;51.886;5.436;2022-11-20T00:22:50;25.97;;;11.17;;
48845;SDS011;34665;51.886;5.436;2022-11-20T00:25:17;23.63;;;10.80;;
48845;SDS011;34665;51.886;5.436;2022-11-20T00:27:43;29.02;;;12.68;;
48845;SDS011;34665;51.886;5.436;2022-11-20T00:30:08;26.33;;;11.35;;
48845;SDS011;34665;51.886;5.436;2022-11-20T00:32:35;25.20;;;11.77;;
48845;SDS011;34665;51.886;5.436;2022-11-20T00:35:00;28.97;;;12.20;;
48845;SDS011;34665;51.886;5.436;2022-11-20T00:37:26;25.65;;;11.00;;
48845;SDS011;34665;51.886;5.436;2022-11-20T00:39:51;30.70;;;12.33;;
48845;SDS011;34665;51.886;5.436;2022-11-20T00:42:16;23.93;;;10.73;;
48845;SDS011;34665;51.886;5.436;2022-11-20T00:44:42;31.37;;;12.80;;
48845;SDS011;34665;51.886;5.436;2022-11-20T00:47:08;28.63;;;12.18;;
48845;SDS011;34665;51.886;5.436;2022-11-20T00:49:34;28.27;;;12.23;;
48845;SDS011;34665;51.886;5.436;2022-11-20T00:51:59;25.80;;;11.77;;
48845;SDS011;34665;51.886;5.436;2022-11-20T00:54:25;26.13;;;12.02;;
48845;SDS011;34665;51.886;5.436;2022-11-20T00:56:52;24.47;;;12.43;;
48845;SDS011;34665;51.886;5.436;2022-11-20T00:59:19;26.20;;;11.02;;
48845;SDS011;34665;51.886;5.436;2022-11-20T01:01:44;24.30;;;10.13;;
48845;SDS011;34665;51.886;5.436;2022-11-20T01:04:10;25.92;;;10.38;;
48845;SDS011;34665;51.886;5.436;2022-11-20T01:06:37;24.85;;;11.63;;
48845;SDS011;34665;51.886;5.436;2022-11-20T01:09:06;26.48;;;11.18;;
48845;SDS011;34665;51.886;5.436;2022-11-20T01:11:37;24.92;;;11.00;;
48845;SDS011;34665;51.886;5.436;2022-11-20T01:14:05;27.30;;;12.52;;
48845;SDS011;34665;51.886;5.436;2022-11-20T01:16:33;24.85;;;11.68;;
48845;SDS011;34665;51.886;5.436;2022-11-20T01:19:02;24.05;;;10.38;;
48845;SDS011;34665;51.886;5.436;2022-11-20T01:21:30;27.60;;;12.13;;
48845;SDS011;34665;51.886;5.436;2022-11-20T01:24:02;29.65;;;11.65;;
48845;SDS011;34665;51.886;5.436;2022-11-20T01:26:30;26.27;;;12.57;;
48845;SDS011;34665;51.886;5.436;2022-11-20T01:28:57;25.52;;;11.85;;
48845;SDS011;34665;51.886;5.436;2022-11-20T01:31:28;31.75;;;13.15;;
48845;SDS011;34665;51.886;5.436;2022-11-20T01:33:57;27.17;;;12.63;;
48845;SDS011;34665;51.886;5.436;2022-11-20T01:36:24;25.48;;;12.52;;
48845;SDS011;34665;51.886;5.436;2022-11-20T01:38:52;27.85;;;13.02;;
48845;SDS011;34665;51.886;5.436;2022-11-20T01:41:22;30.77;;;12.25;;
48845;SDS011;34665;51.886;5.436;2022-11-20T01:44:09;23.85;;;11.88;;
48845;SDS011;34665;51.886;5.436;2022-11-20T01:46:38;30.00;;;12.80;;
48845;SDS011;34665;51.886;5.436;2022-11-20T01:52:47;27.05;;;12.55;;
48845;SDS011;34665;51.886;5.436;2022-11-20T01:55:20;27.73;;;12.18;;
48845;SDS011;34665;51.886;5.436;2022-11-20T01:57:49;28.00;;;12.55;;
48845;SDS011;34665;51.886;5.436;2022-11-20T02:00:16;23.42;;;10.50;;
48845;SDS011;34665;51.886;5.436;2022-11-20T02:02:45;28.40;;;13.13;;
48845;SDS011;34665;51.886;5.436;2022-11-20T02:08:05;29.63;;;11.95;;
48845;SDS011;34665;51.886;5.436;2022-11-20T02:10:32;26.40;;;12.32;;
48845;SDS011;34665;51.886;5.436;2022-11-20T02:13:00;24.38;;;11.10;;
48845;SDS011;34665;51.886;5.436;2022-11-20T02:15:45;25.20;;;11.50;;
48845;SDS011;34665;51.886;5.436;2022-11-20T02:18:13;24.30;;;11.60;;
48845;SDS011;34665;51.886;5.436;2022-11-20T02:20:42;26.50;;;11.95;;
48845;SDS011;34665;51.886;5.436;2022-11-20T02:23:14;23.20;;;11.93;;
48845;SDS011;34665;51.886;5.436;2022-11-20T02:25:50;26.30;;;11.80;;
48845;SDS011;34665;51.886;5.436;2022-11-20T02:28:17;24.63;;;11.55;;
48845;SDS011;34665;51.886;5.436;2022-11-20T02:30:44;24.50;;;11.20;;
48845;SDS011;34665;51.886;5.436;2022-11-20T02:33:11;26.95;;;12.40;;
48845;SDS011;34665;51.886;5.436;2022-11-20T02:35:40;17.90;;;8.77;;
48845;SDS011;34665;51.886;5.436;2022-11-20T02:38:08;28.95;;;11.95;;
48845;SDS011;34665;51.886;5.436;2022-11-20T02:40:34;22.67;;;9.20;;
48845;SDS011;34665;51.886;5.436;2022-11-20T02:42:59;32.05;;;12.18;;
48845;SDS011;34665;51.886;5.436;2022-11-20T02:45:25;29.83;;;12.27;;
48845;SDS011;34665;51.886;5.436;2022-11-20T02:47:50;27.33;;;12.07;;
48845;SDS011;34665;51.886;5.436;2022-11-20T02:50:16;25.03;;;11.23;;
48845;SDS011;34665;51.886;5.436;2022-11-20T02:52:42;28.20;;;12.90;;
48845;SDS011;34665;51.886;5.436;2022-11-20T02:57:34;26.83;;;11.83;;
48845;SDS011;34665;51.886;5.436;2022-11-20T03:00:00;26.00;;;10.07;;
48845;SDS011;34665;51.886;5.436;2022-11-20T03:02:27;27.77;;;12.65;;
48845;SDS011;34665;51.886;5.436;2022-11-20T03:04:55;29.85;;;13.50;;
48845;SDS011;34665;51.886;5.436;2022-11-20T03:07:21;26.67;;;13.37;;
48845;SDS011;34665;51.886;5.436;2022-11-20T03:09:46;28.37;;;12.70;;
48845;SDS011;34665;51.886;5.436;2022-11-20T03:12:12;32.03;;;13.15;;
48845;SDS011;34665;51.886;5.436;2022-11-20T03:14:38;28.80;;;13.23;;
48845;SDS011;34665;51.886;5.436;2022-11-20T03:17:04;23.65;;;12.20;;
48845;SDS011;34665;51.886;5.436;2022-11-20T03:19:30;27.92;;;12.77;;
48845;SDS011;34665;51.886;5.436;2022-11-20T03:21:55;30.25;;;12.65;;
48845;SDS011;34665;51.886;5.436;2022-11-20T03:24:21;26.50;;;12.13;;
48845;SDS011;34665;51.886;5.436;2022-11-20T03:26:47;30.27;;;12.65;;
48845;SDS011;34665;51.886;5.436;2022-11-20T03:29:12;31.02;;;12.70;;
48845;SDS011;34665;51.886;5.436;2022-11-20T03:31:38;40.87;;;13.77;;
48845;SDS011;34665;51.886;5.436;2022-11-20T03:34:09;33.35;;;13.73;;
48845;SDS011;34665;51.886;5.436;2022-11-20T03:36:40;30.75;;;13.77;;
48845;SDS011;34665;51.886;5.436;2022-11-20T03:39:07;31.15;;;13.80;;
48845;SDS011;34665;51.886;5.436;2022-11-20T03:41:37;28.05;;;12.60;;
48845;SDS011;34665;51.886;5.436;2022-11-20T03:44:05;26.63;;;12.25;;
48845;SDS011;34665;51.886;5.436;2022-11-20T03:46:33;27.90;;;12.82;;
48845;SDS011;34665;51.886;5.436;2022-11-20T03:48:59;31.27;;;13.25;;
48845;SDS011;34665;51.886;5.436;2022-11-20T03:51:26;31.15;;;13.65;;
48845;SDS011;34665;51.886;5.436;2022-11-20T03:53:54;31.90;;;12.45;;
48845;SDS011;34665;51.886;5.436;2022-11-20T03:56:28;24.83;;;11.63;;
48845;SDS011;34665;51.886;5.436;2022-11-20T03:58:56;38.05;;;13.80;;
48845;SDS011;34665;51.886;5.436;2022-11-20T04:01:23;31.57;;;14.40;;
48845;SDS011;34665;51.886;5.436;2022-11-20T04:03:52;32.15;;;13.88;;
48845;SDS011;34665;51.886;5.436;2022-11-20T04:06:22;26.40;;;13.40;;
48845;SDS011;34665;51.886;5.436;2022-11-20T04:08:49;32.38;;;13.73;;
48845;SDS011;34665;51.886;5.436;2022-11-20T04:11:20;30.35;;;13.52;;
48845;SDS011;34665;51.886;5.436;2022-11-20T04:13:52;29.10;;;13.20;;
48845;SDS011;34665;51.886;5.436;2022-11-20T04:16:19;31.48;;;14.00;;
48845;SDS011;34665;51.886;5.436;2022-11-20T04:18:46;33.17;;;13.65;;
48845;SDS011;34665;51.886;5.436;2022-11-20T04:21:11;45.07;;;15.13;;
48845;SDS011;34665;51.886;5.436;2022-11-20T04:23:38;31.65;;;13.40;;
48845;SDS011;34665;51.886;5.436;2022-11-20T04:26:10;35.87;;;13.57;;
48845;SDS011;34665;51.886;5.436;2022-11-20T04:28:37;30.70;;;13.68;;
48845;SDS011;34665;51.886;5.436;2022-11-20T04:31:13;37.03;;;15.27;;
48845;SDS011;34665;51.886;5.436;2022-11-20T04:33:40;27.33;;;12.85;;
48845;SDS011;34665;51.886;5.436;2022-11-20T04:36:12;26.48;;;13.50;;
48845;SDS011;34665;51.886;5.436;2022-11-20T04:38:39;31.73;;;14.60;;
48845;SDS011;34665;51.886;5.436;2022-11-20T04:41:05;22.85;;;10.82;;
48845;SDS011;34665;51.886;5.436;2022-11-20T04:43:33;31.40;;;14.05;;
48845;SDS011;34665;51.886;5.436;2022-11-20T04:45:59;28.10;;;13.45;;
48845;SDS011;34665;51.886;5.436;2022-11-20T04:48:26;29.73;;;13.85;;
48845;SDS011;34665;51.886;5.436;2022-11-20T04:50:53;29.55;;;12.45;;
48845;SDS011;34665;51.886;5.436;2022-11-20T04:53:18;23.77;;;9.93;;
48845;SDS011;34665;51.886;5.436;2022-11-20T04:55:44;28.88;;;12.98;;
48845;SDS011;34665;51.886;5.436;2022-11-20T04:58:10;30.17;;;13.48;;
48845;SDS011;34665;51.886;5.436;2022-11-20T05:00:36;30.08;;;14.23;;
48845;SDS011;34665;51.886;5.436;2022-11-20T05:03:02;33.63;;;13.97;;
48845;SDS011;34665;51.886;5.436;2022-11-20T05:05:28;30.40;;;13.68;;
48845;SDS011;34665;51.886;5.436;2022-11-20T05:07:57;29.73;;;13.25;;
48845;SDS011;34665;51.886;5.436;2022-11-20T05:10:24;26.35;;;12.82;;
48845;SDS011;34665;51.886;5.436;2022-11-20T05:12:52;31.70;;;12.93;;
48845;SDS011;34665;51.886;5.436;2022-11-20T05:15:18;27.17;;;10.63;;
48845;SDS011;34665;51.886;5.436;2022-11-20T05:17:50;25.90;;;13.20;;
48845;SDS011;34665;51.886;5.436;2022-11-20T05:20:16;28.40;;;13.68;;
48845;SDS011;34665;51.886;5.436;2022-11-20T05:22:43;27.35;;;12.38;;
48845;SDS011;34665;51.886;5.436;2022-11-20T05:25:09;28.63;;;13.23;;
48845;SDS011;34665;51.886;5.436;2022-11-20T05:27:35;30.98;;;13.85;;
48845;SDS011;34665;51.886;5.436;2022-11-20T05:30:00;36.25;;;16.55;;
48845;SDS011;34665;51.886;5.436;2022-11-20T05:32:25;32.57;;;14.17;;
48845;SDS011;34665;51.886;5.436;2022-11-20T05:34:52;29.65;;;13.60;;
48845;SDS011;34665;51.886;5.436;2022-11-20T05:37:17;37.42;;;15.45;;
48845;SDS011;34665;51.886;5.436;2022-11-20T05:39:43;34.43;;;14.37;;
48845;SDS011;34665;51.886;5.436;2022-11-20T05:42:08;33.60;;;15.57;;
48845;SDS011;34665;51.886;5.436;2022-11-20T05:44:53;35.20;;;14.88;;
48845;SDS011;34665;51.886;5.436;2022-11-20T05:47:19;26.60;;;14.38;;
48845;SDS011;34665;51.886;5.436;2022-11-20T05:49:45;28.38;;;13.05;;
48845;SDS011;34665;51.886;5.436;2022-11-20T05:52:10;30.27;;;12.57;;
48845;SDS011;34665;51.886;5.436;2022-11-20T05:54:36;33.38;;;13.65;;
48845;SDS011;34665;51.886;5.436;2022-11-20T05:57:02;31.02;;;15.93;;
48845;SDS011;34665;51.886;5.436;2022-11-20T05:59:28;35.17;;;14.87;;
48845;SDS011;34665;51.886;5.436;2022-11-20T06:01:53;32.95;;;15.23;;
48845;SDS011;34665;51.886;5.436;2022-11-20T06:04:19;27.73;;;11.48;;
48845;SDS011;34665;51.886;5.436;2022-11-20T06:06:44;34.72;;;14.15;;
48845;SDS011;34665;51.886;5.436;2022-11-20T06:09:10;21.38;;;11.23;;
48845;SDS011;34665;51.886;5.436;2022-11-20T06:11:36;32.75;;;14.20;;
48845;SDS011;34665;51.886;5.436;2022-11-20T06:14:01;28.93;;;12.10;;
48845;SDS011;34665;51.886;5.436;2022-11-20T06:16:27;29.27;;;13.93;;
48845;SDS011;34665;51.886;5.436;2022-11-20T06:18:53;37.45;;;15.60;;
48845;SDS011;34665;51.886;5.436;2022-11-20T06:21:20;28.42;;;14.15;;
48845;SDS011;34665;51.886;5.436;2022-11-20T06:23:46;31.63;;;14.57;;
48845;SDS011;34665;51.886;5.436;2022-11-20T06:26:14;34.33;;;16.38;;
48845;SDS011;34665;51.886;5.436;2022-11-20T06:28:50;32.00;;;15.70;;
48845;SDS011;34665;51.886;5.436;2022-11-20T06:31:18;32.45;;;13.95;;
48845;SDS011;34665;51.886;5.436;2022-11-20T06:33:45;30.50;;;15.15;;
48845;SDS011;34665;51.886;5.436;2022-11-20T06:36:12;24.00;;;10.68;;
48845;SDS011;34665;51.886;5.436;2022-11-20T06:38:39;37.40;;;16.52;;
48845;SDS011;34665;51.886;5.436;2022-11-20T06:41:06;32.15;;;15.20;;
48845;SDS011;34665;51.886;5.436;2022-11-20T06:43:35;35.33;;;15.18;;
48845;SDS011;34665;51.886;5.436;2022-11-20T06:46:00;32.07;;;14.53;;
48845;SDS011;34665;51.886;5.436;2022-11-20T06:48:26;26.60;;;12.05;;
48845;SDS011;34665;51.886;5.436;2022-11-20T06:50:53;34.17;;;14.63;;
48845;SDS011;34665;51.886;5.436;2022-11-20T06:53:18;35.28;;;15.00;;
48845;SDS011;34665;51.886;5.436;2022-11-20T06:55:45;34.50;;;16.38;;
48845;SDS011;34665;51.886;5.436;2022-11-20T06:58:12;38.55;;;16.40;;
48845;SDS011;34665;51.886;5.436;2022-11-20T07:00:39;41.90;;;16.52;;
48845;SDS011;34665;51.886;5.436;2022-11-20T07:03:05;30.35;;;13.02;;
48845;SDS011;34665;51.886;5.436;2022-11-20T07:05:32;39.92;;;16.70;;
48845;SDS011;34665;51.886;5.436;2022-11-20T07:07:57;38.33;;;15.20;;
48845;SDS011;34665;51.886;5.436;2022-11-20T07:10:24;32.72;;;14.48;;
48845;SDS011;34665;51.886;5.436;2022-11-20T07:12:54;33.20;;;15.43;;
48845;SDS011;34665;51.886;5.436;2022-11-20T07:15:21;33.10;;;16.13;;
48845;SDS011;34665;51.886;5.436;2022-11-20T07:17:48;28.90;;;13.82;;
48845;SDS011;34665;51.886;5.436;2022-11-20T07:20:14;31.48;;;14.70;;
48845;SDS011;34665;51.886;5.436;2022-11-20T07:22:40;32.15;;;14.70;;
48845;SDS011;34665;51.886;5.436;2022-11-20T07:25:07;37.85;;;15.20;;
48845;SDS011;34665;51.886;5.436;2022-11-20T07:27:33;34.95;;;14.75;;
48845;SDS011;34665;51.886;5.436;2022-11-20T07:29:59;33.35;;;14.50;;
48845;SDS011;34665;51.886;5.436;2022-11-20T07:32:25;24.98;;;11.32;;
48845;SDS011;34665;51.886;5.436;2022-11-20T07:34:52;35.65;;;14.15;;
48845;SDS011;34665;51.886;5.436;2022-11-20T07:37:18;26.05;;;12.63;;
48845;SDS011;34665;51.886;5.436;2022-11-20T07:39:43;34.60;;;14.90;;
48845;SDS011;34665;51.886;5.436;2022-11-20T07:42:09;29.75;;;13.98;;
48845;SDS011;34665;51.886;5.436;2022-11-20T07:44:36;33.97;;;15.48;;
48845;SDS011;34665;51.886;5.436;2022-11-20T07:47:03;40.20;;;16.45;;
48845;SDS011;34665;51.886;5.436;2022-11-20T07:49:28;31.63;;;15.85;;
48845;SDS011;34665;51.886;5.436;2022-11-20T07:51:54;34.37;;;14.87;;
48845;SDS011;34665;51.886;5.436;2022-11-20T07:54:22;36.13;;;15.87;;
48845;SDS011;34665;51.886;5.436;2022-11-20T07:56:48;32.65;;;15.27;;
48845;SDS011;34665;51.886;5.436;2022-11-20T07:59:14;32.58;;;14.55;;
48845;SDS011;34665;51.886;5.436;2022-11-20T08:01:40;31.52;;;14.50;;
48845;SDS011;34665;51.886;5.436;2022-11-20T08:04:07;28.95;;;14.05;;
48845;SDS011;34665;51.886;5.436;2022-11-20T08:06:34;32.92;;;15.93;;
48845;SDS011;34665;51.886;5.436;2022-11-20T08:09:00;25.58;;;12.70;;
48845;SDS011;34665;51.886;5.436;2022-11-20T08:11:26;30.00;;;14.05;;
48845;SDS011;34665;51.886;5.436;2022-11-20T08:14:10;33.65;;;15.52;;
48845;SDS011;34665;51.886;5.436;2022-11-20T08:16:42;34.58;;;17.48;;
48845;SDS011;34665;51.886;5.436;2022-11-20T08:19:10;32.47;;;15.13;;
48845;SDS011;34665;51.886;5.436;2022-11-20T08:21:36;35.20;;;15.05;;
48845;SDS011;34665;51.886;5.436;2022-11-20T08:24:02;33.95;;;16.52;;
48845;SDS011;34665;51.886;5.436;2022-11-20T08:26:28;29.42;;;13.50;;
48845;SDS011;34665;51.886;5.436;2022-11-20T08:28:55;24.95;;;13.40;;
48845;SDS011;34665;51.886;5.436;2022-11-20T08:31:23;34.13;;;15.35;;
48845;SDS011;34665;51.886;5.436;2022-11-20T08:33:50;31.35;;;15.18;;
48845;SDS011;34665;51.886;5.436;2022-11-20T08:36:16;34.33;;;16.33;;
48845;SDS011;34665;51.886;5.436;2022-11-20T08:38:41;33.35;;;16.08;;
48845;SDS011;34665;51.886;5.436;2022-11-20T08:41:11;34.28;;;14.30;;
48845;SDS011;34665;51.886;5.436;2022-11-20T08:44:04;32.85;;;14.95;;
48845;SDS011;34665;51.886;5.436;2022-11-20T08:46:37;29.70;;;16.85;;
48845;SDS011;34665;51.886;5.436;2022-11-20T08:49:06;29.95;;;14.77;;
48845;SDS011;34665;51.886;5.436;2022-11-20T08:51:33;29.23;;;15.20;;
48845;SDS011;34665;51.886;5.436;2022-11-20T08:54:00;34.88;;;14.98;;
48845;SDS011;34665;51.886;5.436;2022-11-20T08:56:26;34.80;;;14.80;;
48845;SDS011;34665;51.886;5.436;2022-11-20T08:58:52;25.20;;;12.10;;
48845;SDS011;34665;51.886;5.436;2022-11-20T09:01:21;33.42;;;14.07;;
48845;SDS011;34665;51.886;5.436;2022-11-20T09:03:48;34.30;;;15.95;;
48845;SDS011;34665;51.886;5.436;2022-11-20T09:06:14;30.80;;;14.82;;
48845;SDS011;34665;51.886;5.436;2022-11-20T09:08:43;32.55;;;14.15;;
48845;SDS011;34665;51.886;5.436;2022-11-20T09:11:09;36.78;;;15.27;;
48845;SDS011;34665;51.886;5.436;2022-11-20T09:13:35;29.95;;;14.45;;
48845;SDS011;34665;51.886;5.436;2022-11-20T09:16:03;35.15;;;15.07;;
48845;SDS011;34665;51.886;5.436;2022-11-20T09:18:31;35.00;;;14.60;;
48845;SDS011;34665;51.886;5.436;2022-11-20T09:21:01;33.88;;;16.27;;
48845;SDS011;34665;51.886;5.436;2022-11-20T09:23:34;30.15;;;14.93;;
48845;SDS011;34665;51.886;5.436;2022-11-20T09:26:01;27.50;;;14.15;;
48845;SDS011;34665;51.886;5.436;2022-11-20T09:28:29;30.23;;;14.80;;
48845;SDS011;34665;51.886;5.436;2022-11-20T09:30:54;29.08;;;14.05;;
48845;SDS011;34665;51.886;5.436;2022-11-20T09:33:20;30.43;;;14.20;;
48845;SDS011;34665;51.886;5.436;2022-11-20T09:35:45;29.77;;;15.10;;
48845;SDS011;34665;51.886;5.436;2022-11-20T09:38:11;33.17;;;14.30;;
48845;SDS011;34665;51.886;5.436;2022-11-20T09:40:40;31.17;;;14.10;;
48845;SDS011;34665;51.886;5.436;2022-11-20T09:43:16;28.83;;;14.68;;
48845;SDS011;34665;51.886;5.436;2022-11-20T09:48:55;35.03;;;15.43;;
48845;SDS011;34665;51.886;5.436;2022-11-20T09:51:34;30.02;;;14.80;;
48845;SDS011;34665;51.886;5.436;2022-11-20T09:54:18;28.85;;;14.32;;
48845;SDS011;34665;51.886;5.436;2022-11-20T09:56:58;31.67;;;15.48;;
48845;SDS011;34665;51.886;5.436;2022-11-20T09:59:34;31.90;;;15.85;;
48845;SDS011;34665;51.886;5.436;2022-11-20T10:04:51;29.65;;;15.90;;
48845;SDS011;34665;51.886;5.436;2022-11-20T10:07:37;36.38;;;17.25;;
48845;SDS011;34665;51.886;5.436;2022-11-20T10:10:43;33.80;;;16.35;;
48845;SDS011;34665;51.886;5.436;2022-11-20T10:21:23;33.83;;;17.33;;
48845;SDS011;34665;51.886;5.436;2022-11-20T10:29:32;33.90;;;16.88;;
48845;SDS011;34665;51.886;5.436;2022-11-20T10:32:02;39.45;;;18.25;;
48845;SDS011;34665;51.886;5.436;2022-11-20T10:34:39;35.35;;;16.52;;
48845;SDS011;34665;51.886;5.436;2022-11-20T10:37:16;34.92;;;16.15;;
48845;SDS011;34665;51.886;5.436;2022-11-20T10:45:13;41.63;;;17.98;;
48845;SDS011;34665;51.886;5.436;2022-11-20T10:47:46;41.47;;;18.67;;
48845;SDS011;34665;51.886;5.436;2022-11-20T10:50:14;43.78;;;19.30;;
48845;SDS011;34665;51.886;5.436;2022-11-20T10:52:49;36.65;;;17.95;;
48845;SDS011;34665;51.886;5.436;2022-11-20T10:55:45;39.70;;;17.80;;
48845;SDS011;34665;51.886;5.436;2022-11-20T10:58:17;34.80;;;18.25;;
48845;SDS011;34665;51.886;5.436;2022-11-20T11:01:13;44.15;;;19.13;;
48845;SDS011;34665;51.886;5.436;2022-11-20T11:03:41;42.22;;;17.98;;
48845;SDS011;34665;51.886;5.436;2022-11-20T11:08:49;38.88;;;18.50;;
48845;SDS011;34665;51.886;5.436;2022-11-20T11:11:23;41.20;;;17.35;;
48845;SDS011;34665;51.886;5.436;2022-11-20T11:14:03;38.65;;;18.95;;
48845;SDS011;34665;51.886;5.436;2022-11-20T11:16:30;40.65;;;18.50;;
48845;SDS011;34665;51.886;5.436;2022-11-20T11:19:03;40.93;;;18.33;;
48845;SDS011;34665;51.886;5.436;2022-11-20T11:21:36;37.92;;;17.92;;
48845;SDS011;34665;51.886;5.436;2022-11-20T11:24:15;40.63;;;18.33;;
48845;SDS011;34665;51.886;5.436;2022-11-20T11:27:03;43.70;;;20.52;;
48845;SDS011;34665;51.886;5.436;2022-11-20T11:29:35;38.42;;;18.67;;
48845;SDS011;34665;51.886;5.436;2022-11-20T11:34:34;41.00;;;18.70;;
48845;SDS011;34665;51.886;5.436;2022-11-20T11:37:00;45.67;;;18.57;;
48845;SDS011;34665;51.886;5.436;2022-11-20T11:39:29;44.10;;;19.35;;
48845;SDS011;34665;51.886;5.436;2022-11-20T11:41:56;45.92;;;19.35;;
48845;SDS011;34665;51.886;5.436;2022-11-20T11:44:31;45.42;;;20.10;;
48845;SDS011;34665;51.886;5.436;2022-11-20T11:47:24;45.65;;;20.77;;
48845;SDS011;34665;51.886;5.436;2022-11-20T11:53:03;41.65;;;20.08;;
48845;SDS011;34665;51.886;5.436;2022-11-20T12:00:47;44.88;;;20.38;;
48845;SDS011;34665;51.886;5.436;2022-11-20T12:03:38;39.75;;;18.83;;
48845;SDS011;34665;51.886;5.436;2022-11-20T12:06:15;54.50;;;21.25;;
48845;SDS011;34665;51.886;5.436;2022-11-20T12:14:21;44.50;;;19.67;;
48845;SDS011;34665;51.886;5.436;2022-11-20T12:16:52;49.70;;;21.13;;
48845;SDS011;34665;51.886;5.436;2022-11-20T12:19:21;47.08;;;21.05;;
48845;SDS011;34665;51.886;5.436;2022-11-20T12:22:04;49.00;;;21.17;;
48845;SDS011;34665;51.886;5.436;2022-11-20T12:27:41;52.95;;;23.35;;
48845;SDS011;34665;51.886;5.436;2022-11-20T12:30:16;62.10;;;27.40;;
48845;SDS011;34665;51.886;5.436;2022-11-20T12:35:48;52.40;;;23.58;;
48845;SDS011;34665;51.886;5.436;2022-11-20T12:41:29;60.72;;;24.17;;
48845;SDS011;34665;51.886;5.436;2022-11-20T12:55:42;60.80;;;23.67;;
48845;SDS011;34665;51.886;5.436;2022-11-20T13:01:12;50.13;;;21.58;;
48845;SDS011;34665;51.886;5.436;2022-11-20T13:07:10;51.40;;;22.08;;
48845;SDS011;34665;51.886;5.436;2022-11-20T13:17:41;51.25;;;22.52;;
48845;SDS011;34665;51.886;5.436;2022-11-20T13:20:17;48.75;;;22.98;;
48845;SDS011;34665;51.886;5.436;2022-11-20T13:22:45;54.35;;;22.35;;
48845;SDS011;34665;51.886;5.436;2022-11-20T13:25:22;53.75;;;21.83;;
48845;SDS011;34665;51.886;5.436;2022-11-20T13:27:49;58.63;;;22.20;;
48845;SDS011;34665;51.886;5.436;2022-11-20T13:30:19;55.05;;;21.42;;
48845;SDS011;34665;51.886;5.436;2022-11-20T13:32:50;53.13;;;23.35;;
48845;SDS011;34665;51.886;5.436;2022-11-20T13:35:28;56.03;;;22.98;;
48845;SDS011;34665;51.886;5.436;2022-11-20T13:38:07;57.55;;;23.98;;
48845;SDS011;34665;51.886;5.436;2022-11-20T13:40:36;54.78;;;24.08;;
48845;SDS011;34665;51.886;5.436;2022-11-20T13:43:49;58.33;;;25.25;;
48845;SDS011;34665;51.886;5.436;2022-11-20T13:46:09;53.30;;;24.27;;
48845;SDS011;34665;51.886;5.436;2022-11-20T13:48:39;63.70;;;25.40;;
48845;SDS011;34665;51.886;5.436;2022-11-20T13:54:01;61.03;;;25.00;;
48845;SDS011;34665;51.886;5.436;2022-11-20T13:56:47;57.25;;;25.20;;
48845;SDS011;34665;51.886;5.436;2022-11-20T14:01:52;62.28;;;25.35;;
48845;SDS011;34665;51.886;5.436;2022-11-20T14:04:21;63.63;;;25.20;;
48845;SDS011;34665;51.886;5.436;2022-11-20T14:06:52;54.22;;;23.98;;
48845;SDS011;34665;51.886;5.436;2022-11-20T14:09:28;60.78;;;25.92;;
48845;SDS011;34665;51.886;5.436;2022-11-20T14:11:55;68.05;;;26.38;;
48845;SDS011;34665;51.886;5.436;2022-11-20T14:14:22;61.58;;;25.77;;
48845;SDS011;34665;51.886;5.436;2022-11-20T14:16:49;65.00;;;24.83;;
48845;SDS011;34665;51.886;5.436;2022-11-20T14:19:23;58.08;;;25.77;;
48845;SDS011;34665;51.886;5.436;2022-11-20T14:21:53;64.75;;;26.35;;
48845;SDS011;34665;51.886;5.436;2022-11-20T14:24:31;66.43;;;26.65;;
48845;SDS011;34665;51.886;5.436;2022-11-20T14:26:56;57.70;;;25.33;;
48845;SDS011;34665;51.886;5.436;2022-11-20T14:29:26;55.43;;;26.93;;
48845;SDS011;34665;51.886;5.436;2022-11-20T14:31:55;62.08;;;24.92;;
48845;SDS011;34665;51.886;5.436;2022-11-20T14:34:26;71.35;;;28.30;;
48845;SDS011;34665;51.886;5.436;2022-11-20T14:36:58;53.70;;;25.65;;
48845;SDS011;34665;51.886;5.436;2022-11-20T14:39:34;63.40;;;26.38;;
48845;SDS011;34665;51.886;5.436;2022-11-20T14:42:01;54.78;;;23.55;;
48845;SDS011;34665;51.886;5.436;2022-11-20T14:44:39;57.92;;;25.35;;
48845;SDS011;34665;51.886;5.436;2022-11-20T14:47:05;56.85;;;25.98;;
48845;SDS011;34665;51.886;5.436;2022-11-20T14:49:31;64.18;;;26.45;;
48845;SDS011;34665;51.886;5.436;2022-11-20T14:52:00;65.60;;;25.92;;
48845;SDS011;34665;51.886;5.436;2022-11-20T14:54:28;55.72;;;24.75;;
48845;SDS011;34665;51.886;5.436;2022-11-20T14:56:59;63.08;;;26.95;;
48845;SDS011;34665;51.886;5.436;2022-11-20T14:59:28;62.42;;;25.42;;
48845;SDS011;34665;51.886;5.436;2022-11-20T15:02:16;66.35;;;25.38;;
48845;SDS011;34665;51.886;5.436;2022-11-20T15:04:48;63.00;;;25.77;;
48845;SDS011;34665;51.886;5.436;2022-11-20T15:07:25;64.65;;;26.13;;
48845;SDS011;34665;51.886;5.436;2022-11-20T15:10:03;57.30;;;24.85;;
48845;SDS011;34665;51.886;5.436;2022-11-20T15:12:34;67.63;;;27.48;;
48845;SDS011;34665;51.886;5.436;2022-11-20T15:15:02;64.85;;;25.98;;
48845;SDS011;34665;51.886;5.436;2022-11-20T15:17:28;65.35;;;28.80;;
48845;SDS011;34665;51.886;5.436;2022-11-20T15:19:55;73.05;;;27.60;;
48845;SDS011;34665;51.886;5.436;2022-11-20T15:22:21;77.22;;;28.27;;
48845;SDS011;34665;51.886;5.436;2022-11-20T15:24:46;72.07;;;27.97;;
48845;SDS011;34665;51.886;5.436;2022-11-20T15:27:12;68.45;;;25.95;;
48845;SDS011;34665;51.886;5.436;2022-11-20T15:29:37;68.38;;;25.52;;
48845;SDS011;34665;51.886;5.436;2022-11-20T15:32:03;68.87;;;28.40;;
48845;SDS011;34665;51.886;5.436;2022-11-20T15:34:28;73.30;;;26.97;;
48845;SDS011;34665;51.886;5.436;2022-11-20T15:36:54;68.38;;;26.77;;
48845;SDS011;34665;51.886;5.436;2022-11-20T15:39:20;84.90;;;28.43;;
48845;SDS011;34665;51.886;5.436;2022-11-20T15:41:46;69.07;;;26.08;;
48845;SDS011;34665;51.886;5.436;2022-11-20T15:44:12;67.05;;;25.92;;
48845;SDS011;34665;51.886;5.436;2022-11-20T15:46:39;68.88;;;26.13;;
48845;SDS011;34665;51.886;5.436;2022-11-20T15:49:12;68.97;;;25.30;;
48845;SDS011;34665;51.886;5.436;2022-11-20T15:51:40;73.00;;;27.58;;
48845;SDS011;34665;51.886;5.436;2022-11-20T15:54:15;80.28;;;28.70;;
48845;SDS011;34665;51.886;5.436;2022-11-20T15:56:43;77.88;;;28.58;;
48845;SDS011;34665;51.886;5.436;2022-11-20T15:59:09;71.68;;;26.50;;
48845;SDS011;34665;51.886;5.436;2022-11-20T16:01:35;71.20;;;27.23;;
48845;SDS011;34665;51.886;5.436;2022-11-20T16:04:01;78.47;;;28.42;;
48845;SDS011;34665;51.886;5.436;2022-11-20T16:06:27;76.80;;;27.58;;